sensor_id;sensor_type;location;lat;lon;timestamp;P1;durP1;ratioP1;P2;durP2;ratioP2
42186;SDS011;27858;51.414;0.018;2024-01-25T00:00:20;27.02;;;5.03;;
42186;SDS011;27858;51.414;0.018;2024-01-25T00:02:47;24.17;;;5.00;;
42186;SDS011;27858;51.414;0.018;2024-01-25T00:05:13;24.00;;;4.88;;
42186;SDS011;27858;51.414;0.018;2024-01-25T00:07:47;16.90;;;4.30;;
42186;SDS011;27858;51.414;0.018;2024-01-25T00:10:18;13.85;;;4.00;;
42186;SDS011;27858;51.414;0.018;2024-01-25T00:12:45;26.38;;;5.53;;
42186;SDS011;27858;51.414;0.018;2024-01-25T00:15:12;30.02;;;7.22;;
42186;SDS011;27858;51.414;0.018;2024-01-25T00:17:39;17.35;;;4.82;;
42186;SDS011;27858;51.414;0.018;2024-01-25T00:20:08;16.15;;;4.35;;
42186;SDS011;27858;51.414;0.018;2024-01-25T00:22:36;12.95;;;3.30;;
42186;SDS011;27858;51.414;0.018;2024-01-25T00:25:04;16.30;;;5.32;;
42186;SDS011;27858;51.414;0.018;2024-01-25T00:27:32;13.75;;;4.80;;
42186;SDS011;27858;51.414;0.018;2024-01-25T00:29:58;12.68;;;3.20;;
42186;SDS011;27858;51.414;0.018;2024-01-25T00:32:25;15.27;;;4.13;;
42186;SDS011;27858;51.414;0.018;2024-01-25T00:34:52;27.98;;;5.40;;
42186;SDS011;27858;51.414;0.018;2024-01-25T00:37:19;12.95;;;3.85;;
42186;SDS011;27858;51.414;0.018;2024-01-25T00:39:47;19.33;;;4.85;;
42186;SDS011;27858;51.414;0.018;2024-01-25T00:42:15;18.48;;;5.88;;
42186;SDS011;27858;51.414;0.018;2024-01-25T00:44:42;10.27;;;3.08;;
42186;SDS011;27858;51.414;0.018;2024-01-25T00:47:09;22.00;;;4.78;;
42186;SDS011;27858;51.414;0.018;2024-01-25T00:49:36;17.10;;;4.25;;
42186;SDS011;27858;51.414;0.018;2024-01-25T00:52:04;16.92;;;4.68;;
42186;SDS011;27858;51.414;0.018;2024-01-25T00:54:31;17.50;;;4.60;;
42186;SDS011;27858;51.414;0.018;2024-01-25T00:56:58;19.40;;;4.75;;
42186;SDS011;27858;51.414;0.018;2024-01-25T00:59:25;26.05;;;7.32;;
42186;SDS011;27858;51.414;0.018;2024-01-25T01:01:53;18.63;;;5.45;;
42186;SDS011;27858;51.414;0.018;2024-01-25T01:04:21;16.30;;;5.15;;
42186;SDS011;27858;51.414;0.018;2024-01-25T01:06:49;21.42;;;7.43;;
42186;SDS011;27858;51.414;0.018;2024-01-25T01:09:16;19.58;;;5.35;;
42186;SDS011;27858;51.414;0.018;2024-01-25T01:11:44;23.00;;;6.70;;
42186;SDS011;27858;51.414;0.018;2024-01-25T01:14:10;18.55;;;4.32;;
42186;SDS011;27858;51.414;0.018;2024-01-25T01:16:38;15.38;;;4.55;;
42186;SDS011;27858;51.414;0.018;2024-01-25T01:19:04;11.05;;;4.07;;
42186;SDS011;27858;51.414;0.018;2024-01-25T01:21:33;21.05;;;5.55;;
42186;SDS011;27858;51.414;0.018;2024-01-25T01:24:02;18.17;;;4.10;;
42186;SDS011;27858;51.414;0.018;2024-01-25T01:26:28;17.27;;;4.50;;
42186;SDS011;27858;51.414;0.018;2024-01-25T01:28:55;12.15;;;4.60;;
42186;SDS011;27858;51.414;0.018;2024-01-25T01:31:22;21.00;;;4.70;;
42186;SDS011;27858;51.414;0.018;2024-01-25T01:33:49;9.23;;;3.00;;
42186;SDS011;27858;51.414;0.018;2024-01-25T01:36:16;18.60;;;4.57;;
42186;SDS011;27858;51.414;0.018;2024-01-25T01:38:43;15.43;;;4.15;;
42186;SDS011;27858;51.414;0.018;2024-01-25T01:41:10;21.38;;;5.30;;
42186;SDS011;27858;51.414;0.018;2024-01-25T01:43:39;8.80;;;4.43;;
42186;SDS011;27858;51.414;0.018;2024-01-25T01:46:09;12.95;;;4.38;;
42186;SDS011;27858;51.414;0.018;2024-01-25T01:48:38;19.75;;;6.25;;
42186;SDS011;27858;51.414;0.018;2024-01-25T01:51:06;15.30;;;4.43;;
42186;SDS011;27858;51.414;0.018;2024-01-25T01:53:35;16.02;;;3.95;;
42186;SDS011;27858;51.414;0.018;2024-01-25T01:56:02;17.73;;;4.60;;
42186;SDS011;27858;51.414;0.018;2024-01-25T01:58:30;15.82;;;4.18;;
42186;SDS011;27858;51.414;0.018;2024-01-25T02:00:59;22.95;;;4.28;;
42186;SDS011;27858;51.414;0.018;2024-01-25T02:03:27;11.27;;;2.47;;
42186;SDS011;27858;51.414;0.018;2024-01-25T02:05:54;16.25;;;3.88;;
42186;SDS011;27858;51.414;0.018;2024-01-25T02:08:21;18.15;;;3.70;;
42186;SDS011;27858;51.414;0.018;2024-01-25T02:10:48;21.67;;;5.43;;
42186;SDS011;27858;51.414;0.018;2024-01-25T02:13:15;13.55;;;4.18;;
42186;SDS011;27858;51.414;0.018;2024-01-25T02:15:42;14.60;;;4.30;;
42186;SDS011;27858;51.414;0.018;2024-01-25T02:18:10;17.15;;;3.03;;
42186;SDS011;27858;51.414;0.018;2024-01-25T02:20:36;24.23;;;4.65;;
42186;SDS011;27858;51.414;0.018;2024-01-25T02:23:03;18.70;;;4.55;;
42186;SDS011;27858;51.414;0.018;2024-01-25T02:25:30;16.60;;;4.30;;
42186;SDS011;27858;51.414;0.018;2024-01-25T02:27:57;16.23;;;4.28;;
42186;SDS011;27858;51.414;0.018;2024-01-25T02:30:24;15.82;;;4.65;;
42186;SDS011;27858;51.414;0.018;2024-01-25T02:32:51;15.50;;;3.67;;
42186;SDS011;27858;51.414;0.018;2024-01-25T02:35:19;13.95;;;3.63;;
42186;SDS011;27858;51.414;0.018;2024-01-25T02:37:46;25.70;;;5.20;;
42186;SDS011;27858;51.414;0.018;2024-01-25T02:40:13;18.63;;;4.68;;
42186;SDS011;27858;51.414;0.018;2024-01-25T02:42:39;17.23;;;5.75;;
42186;SDS011;27858;51.414;0.018;2024-01-25T02:45:06;16.85;;;4.57;;
42186;SDS011;27858;51.414;0.018;2024-01-25T02:47:33;14.68;;;3.75;;
42186;SDS011;27858;51.414;0.018;2024-01-25T02:50:00;16.90;;;4.00;;
42186;SDS011;27858;51.414;0.018;2024-01-25T02:52:27;13.70;;;4.03;;
42186;SDS011;27858;51.414;0.018;2024-01-25T02:54:54;12.80;;;3.35;;
42186;SDS011;27858;51.414;0.018;2024-01-25T02:57:21;17.13;;;4.85;;
42186;SDS011;27858;51.414;0.018;2024-01-25T02:59:48;13.30;;;4.63;;
42186;SDS011;27858;51.414;0.018;2024-01-25T03:02:15;11.05;;;3.50;;
42186;SDS011;27858;51.414;0.018;2024-01-25T03:04:45;14.98;;;4.50;;
42186;SDS011;27858;51.414;0.018;2024-01-25T03:07:12;12.18;;;3.38;;
42186;SDS011;27858;51.414;0.018;2024-01-25T03:09:39;16.63;;;3.95;;
42186;SDS011;27858;51.414;0.018;2024-01-25T03:12:06;16.05;;;4.25;;
42186;SDS011;27858;51.414;0.018;2024-01-25T03:14:33;18.75;;;4.63;;
42186;SDS011;27858;51.414;0.018;2024-01-25T03:17:00;18.13;;;5.05;;
42186;SDS011;27858;51.414;0.018;2024-01-25T03:19:27;11.98;;;3.05;;
42186;SDS011;27858;51.414;0.018;2024-01-25T03:21:54;16.15;;;3.97;;
42186;SDS011;27858;51.414;0.018;2024-01-25T03:24:21;16.05;;;3.00;;
42186;SDS011;27858;51.414;0.018;2024-01-25T03:26:48;17.48;;;3.50;;
42186;SDS011;27858;51.414;0.018;2024-01-25T03:29:16;14.73;;;4.07;;
42186;SDS011;27858;51.414;0.018;2024-01-25T03:31:43;11.50;;;2.92;;
42186;SDS011;27858;51.414;0.018;2024-01-25T03:34:10;14.65;;;3.83;;
42186;SDS011;27858;51.414;0.018;2024-01-25T03:36:37;11.10;;;3.80;;
42186;SDS011;27858;51.414;0.018;2024-01-25T03:39:06;13.23;;;3.20;;
42186;SDS011;27858;51.414;0.018;2024-01-25T03:41:33;15.43;;;3.53;;
42186;SDS011;27858;51.414;0.018;2024-01-25T03:44:00;15.40;;;3.45;;
42186;SDS011;27858;51.414;0.018;2024-01-25T03:46:27;17.25;;;4.50;;
42186;SDS011;27858;51.414;0.018;2024-01-25T03:48:54;12.80;;;3.05;;
42186;SDS011;27858;51.414;0.018;2024-01-25T03:51:21;21.77;;;5.97;;
42186;SDS011;27858;51.414;0.018;2024-01-25T03:53:50;14.38;;;3.97;;
42186;SDS011;27858;51.414;0.018;2024-01-25T03:56:19;8.75;;;3.65;;
42186;SDS011;27858;51.414;0.018;2024-01-25T03:58:46;18.13;;;5.18;;
42186;SDS011;27858;51.414;0.018;2024-01-25T04:01:13;16.05;;;4.45;;
42186;SDS011;27858;51.414;0.018;2024-01-25T04:03:40;23.30;;;4.72;;
42186;SDS011;27858;51.414;0.018;2024-01-25T04:06:08;12.30;;;3.58;;
42186;SDS011;27858;51.414;0.018;2024-01-25T04:08:35;15.35;;;3.63;;
42186;SDS011;27858;51.414;0.018;2024-01-25T04:11:01;12.50;;;4.45;;
42186;SDS011;27858;51.414;0.018;2024-01-25T04:13:28;12.80;;;2.78;;
42186;SDS011;27858;51.414;0.018;2024-01-25T04:15:55;20.90;;;3.60;;
42186;SDS011;27858;51.414;0.018;2024-01-25T04:18:22;13.02;;;3.42;;
42186;SDS011;27858;51.414;0.018;2024-01-25T04:20:49;13.93;;;3.67;;
42186;SDS011;27858;51.414;0.018;2024-01-25T04:23:17;14.45;;;3.45;;
42186;SDS011;27858;51.414;0.018;2024-01-25T04:25:44;17.50;;;4.32;;
42186;SDS011;27858;51.414;0.018;2024-01-25T04:28:11;13.68;;;4.03;;
42186;SDS011;27858;51.414;0.018;2024-01-25T04:30:37;16.58;;;4.50;;
42186;SDS011;27858;51.414;0.018;2024-01-25T04:33:04;19.67;;;3.50;;
42186;SDS011;27858;51.414;0.018;2024-01-25T04:35:32;23.13;;;5.03;;
42186;SDS011;27858;51.414;0.018;2024-01-25T04:37:59;13.13;;;4.18;;
42186;SDS011;27858;51.414;0.018;2024-01-25T04:40:26;22.88;;;4.78;;
42186;SDS011;27858;51.414;0.018;2024-01-25T04:42:53;11.98;;;4.85;;
42186;SDS011;27858;51.414;0.018;2024-01-25T04:45:20;15.70;;;4.40;;
42186;SDS011;27858;51.414;0.018;2024-01-25T04:47:46;16.13;;;4.97;;
42186;SDS011;27858;51.414;0.018;2024-01-25T04:50:13;16.67;;;4.45;;
42186;SDS011;27858;51.414;0.018;2024-01-25T04:52:40;14.55;;;3.22;;
42186;SDS011;27858;51.414;0.018;2024-01-25T04:55:07;14.18;;;4.60;;
42186;SDS011;27858;51.414;0.018;2024-01-25T04:57:34;16.17;;;3.72;;
42186;SDS011;27858;51.414;0.018;2024-01-25T05:00:01;14.65;;;4.72;;
42186;SDS011;27858;51.414;0.018;2024-01-25T05:02:29;14.98;;;3.45;;
42186;SDS011;27858;51.414;0.018;2024-01-25T05:04:56;19.10;;;5.30;;
42186;SDS011;27858;51.414;0.018;2024-01-25T05:07:23;23.50;;;4.95;;
42186;SDS011;27858;51.414;0.018;2024-01-25T05:09:56;13.40;;;3.10;;
42186;SDS011;27858;51.414;0.018;2024-01-25T05:12:23;12.35;;;3.45;;
42186;SDS011;27858;51.414;0.018;2024-01-25T05:14:50;14.57;;;3.15;;
42186;SDS011;27858;51.414;0.018;2024-01-25T05:17:17;22.08;;;5.38;;
42186;SDS011;27858;51.414;0.018;2024-01-25T05:19:43;16.10;;;5.13;;
42186;SDS011;27858;51.414;0.018;2024-01-25T05:22:10;12.40;;;5.18;;
42186;SDS011;27858;51.414;0.018;2024-01-25T05:24:37;12.35;;;4.93;;
42186;SDS011;27858;51.414;0.018;2024-01-25T05:27:04;17.27;;;5.50;;
42186;SDS011;27858;51.414;0.018;2024-01-25T05:29:31;13.05;;;4.13;;
42186;SDS011;27858;51.414;0.018;2024-01-25T05:31:58;16.23;;;3.90;;
42186;SDS011;27858;51.414;0.018;2024-01-25T05:34:25;21.85;;;4.32;;
42186;SDS011;27858;51.414;0.018;2024-01-25T05:36:52;23.80;;;4.32;;
42186;SDS011;27858;51.414;0.018;2024-01-25T05:39:19;14.55;;;4.50;;
42186;SDS011;27858;51.414;0.018;2024-01-25T05:41:47;16.27;;;5.18;;
42186;SDS011;27858;51.414;0.018;2024-01-25T05:44:13;36.80;;;5.30;;
42186;SDS011;27858;51.414;0.018;2024-01-25T05:46:40;22.90;;;4.05;;
42186;SDS011;27858;51.414;0.018;2024-01-25T05:49:07;16.80;;;4.70;;
42186;SDS011;27858;51.414;0.018;2024-01-25T05:51:34;11.50;;;4.20;;
42186;SDS011;27858;51.414;0.018;2024-01-25T05:54:02;22.02;;;4.85;;
42186;SDS011;27858;51.414;0.018;2024-01-25T05:56:29;16.35;;;5.10;;
42186;SDS011;27858;51.414;0.018;2024-01-25T05:58:56;24.52;;;5.20;;
42186;SDS011;27858;51.414;0.018;2024-01-25T06:01:23;13.05;;;4.65;;
42186;SDS011;27858;51.414;0.018;2024-01-25T06:03:50;17.58;;;5.18;;
42186;SDS011;27858;51.414;0.018;2024-01-25T06:06:17;22.42;;;5.18;;
42186;SDS011;27858;51.414;0.018;2024-01-25T06:08:44;24.10;;;5.50;;
42186;SDS011;27858;51.414;0.018;2024-01-25T06:11:20;15.65;;;4.75;;
42186;SDS011;27858;51.414;0.018;2024-01-25T06:13:47;22.63;;;5.65;;
42186;SDS011;27858;51.414;0.018;2024-01-25T06:16:14;18.92;;;5.68;;
42186;SDS011;27858;51.414;0.018;2024-01-25T06:18:41;12.85;;;5.07;;
42186;SDS011;27858;51.414;0.018;2024-01-25T06:21:08;19.98;;;6.80;;
42186;SDS011;27858;51.414;0.018;2024-01-25T06:23:35;26.67;;;6.50;;
42186;SDS011;27858;51.414;0.018;2024-01-25T06:26:02;16.35;;;5.38;;
42186;SDS011;27858;51.414;0.018;2024-01-25T06:28:29;21.50;;;5.80;;
42186;SDS011;27858;51.414;0.018;2024-01-25T06:30:55;23.35;;;5.40;;
42186;SDS011;27858;51.414;0.018;2024-01-25T06:33:23;17.92;;;5.43;;
42186;SDS011;27858;51.414;0.018;2024-01-25T06:35:49;19.85;;;4.82;;
42186;SDS011;27858;51.414;0.018;2024-01-25T06:38:16;12.05;;;4.35;;
42186;SDS011;27858;51.414;0.018;2024-01-25T06:40:43;13.05;;;5.18;;
42186;SDS011;27858;51.414;0.018;2024-01-25T06:43:10;26.95;;;4.95;;
42186;SDS011;27858;51.414;0.018;2024-01-25T06:45:39;13.82;;;5.72;;
42186;SDS011;27858;51.414;0.018;2024-01-25T06:48:07;26.48;;;6.22;;
42186;SDS011;27858;51.414;0.018;2024-01-25T06:50:37;20.10;;;4.65;;
42186;SDS011;27858;51.414;0.018;2024-01-25T06:53:04;10.25;;;4.35;;
42186;SDS011;27858;51.414;0.018;2024-01-25T06:55:31;16.85;;;3.85;;
42186;SDS011;27858;51.414;0.018;2024-01-25T06:57:58;7.35;;;3.05;;
42186;SDS011;27858;51.414;0.018;2024-01-25T07:00:25;8.50;;;2.15;;
42186;SDS011;27858;51.414;0.018;2024-01-25T07:02:52;17.60;;;4.68;;
42186;SDS011;27858;51.414;0.018;2024-01-25T07:05:19;5.38;;;2.25;;
42186;SDS011;27858;51.414;0.018;2024-01-25T07:07:46;4.38;;;2.42;;
42186;SDS011;27858;51.414;0.018;2024-01-25T07:10:13;7.55;;;2.55;;
42186;SDS011;27858;51.414;0.018;2024-01-25T07:12:41;8.23;;;2.15;;
42186;SDS011;27858;51.414;0.018;2024-01-25T07:15:08;5.38;;;2.55;;
42186;SDS011;27858;51.414;0.018;2024-01-25T07:17:35;6.72;;;2.50;;
42186;SDS011;27858;51.414;0.018;2024-01-25T07:20:02;16.17;;;3.85;;
42186;SDS011;27858;51.414;0.018;2024-01-25T07:22:29;9.82;;;2.58;;
42186;SDS011;27858;51.414;0.018;2024-01-25T07:24:56;11.98;;;2.45;;
42186;SDS011;27858;51.414;0.018;2024-01-25T07:27:22;7.45;;;2.03;;
42186;SDS011;27858;51.414;0.018;2024-01-25T07:29:49;6.35;;;3.10;;
42186;SDS011;27858;51.414;0.018;2024-01-25T07:32:16;4.88;;;1.92;;
42186;SDS011;27858;51.414;0.018;2024-01-25T07:34:44;8.68;;;2.83;;
42186;SDS011;27858;51.414;0.018;2024-01-25T07:37:13;10.68;;;2.22;;
42186;SDS011;27858;51.414;0.018;2024-01-25T07:39:40;11.20;;;2.85;;
42186;SDS011;27858;51.414;0.018;2024-01-25T07:42:07;11.15;;;3.08;;
42186;SDS011;27858;51.414;0.018;2024-01-25T07:44:34;10.73;;;2.25;;
42186;SDS011;27858;51.414;0.018;2024-01-25T07:47:01;4.57;;;2.55;;
42186;SDS011;27858;51.414;0.018;2024-01-25T07:49:28;5.80;;;1.70;;
42186;SDS011;27858;51.414;0.018;2024-01-25T07:51:56;18.08;;;2.60;;
42186;SDS011;27858;51.414;0.018;2024-01-25T07:54:24;6.75;;;1.95;;
42186;SDS011;27858;51.414;0.018;2024-01-25T07:56:51;5.10;;;1.90;;
42186;SDS011;27858;51.414;0.018;2024-01-25T07:59:17;6.60;;;2.28;;
42186;SDS011;27858;51.414;0.018;2024-01-25T08:01:44;5.05;;;1.85;;
42186;SDS011;27858;51.414;0.018;2024-01-25T08:04:11;7.53;;;1.70;;
42186;SDS011;27858;51.414;0.018;2024-01-25T08:06:38;7.40;;;1.52;;
42186;SDS011;27858;51.414;0.018;2024-01-25T08:09:05;4.75;;;1.67;;
42186;SDS011;27858;51.414;0.018;2024-01-25T08:11:32;2.25;;;1.27;;
42186;SDS011;27858;51.414;0.018;2024-01-25T08:13:59;6.20;;;2.00;;
42186;SDS011;27858;51.414;0.018;2024-01-25T08:16:26;2.22;;;1.10;;
42186;SDS011;27858;51.414;0.018;2024-01-25T08:18:55;1.48;;;1.25;;
42186;SDS011;27858;51.414;0.018;2024-01-25T08:21:22;1.58;;;1.08;;
42186;SDS011;27858;51.414;0.018;2024-01-25T08:23:49;3.58;;;1.40;;
42186;SDS011;27858;51.414;0.018;2024-01-25T08:26:15;2.63;;;1.40;;
42186;SDS011;27858;51.414;0.018;2024-01-25T08:28:42;3.83;;;1.25;;
42186;SDS011;27858;51.414;0.018;2024-01-25T08:31:10;1.25;;;0.70;;
42186;SDS011;27858;51.414;0.018;2024-01-25T08:33:38;1.33;;;0.93;;
42186;SDS011;27858;51.414;0.018;2024-01-25T08:36:19;6.32;;;1.95;;
42186;SDS011;27858;51.414;0.018;2024-01-25T08:38:46;1.70;;;0.57;;
42186;SDS011;27858;51.414;0.018;2024-01-25T08:41:12;0.82;;;0.70;;
42186;SDS011;27858;51.414;0.018;2024-01-25T08:43:41;2.35;;;1.08;;
42186;SDS011;27858;51.414;0.018;2024-01-25T08:46:08;2.35;;;1.05;;
42186;SDS011;27858;51.414;0.018;2024-01-25T08:48:35;4.63;;;1.58;;
42186;SDS011;27858;51.414;0.018;2024-01-25T08:51:02;4.80;;;1.65;;
42186;SDS011;27858;51.414;0.018;2024-01-25T08:53:30;3.30;;;1.73;;
42186;SDS011;27858;51.414;0.018;2024-01-25T08:55:57;1.67;;;1.02;;
42186;SDS011;27858;51.414;0.018;2024-01-25T08:58:24;6.78;;;2.92;;
42186;SDS011;27858;51.414;0.018;2024-01-25T09:00:51;3.33;;;2.00;;
42186;SDS011;27858;51.414;0.018;2024-01-25T09:03:18;5.32;;;2.47;;
42186;SDS011;27858;51.414;0.018;2024-01-25T09:05:44;5.25;;;3.65;;
42186;SDS011;27858;51.414;0.018;2024-01-25T09:08:12;2.33;;;1.60;;
42186;SDS011;27858;51.414;0.018;2024-01-25T09:10:40;1.85;;;1.13;;
42186;SDS011;27858;51.414;0.018;2024-01-25T09:13:08;7.20;;;2.78;;
42186;SDS011;27858;51.414;0.018;2024-01-25T09:15:35;3.33;;;2.15;;
42186;SDS011;27858;51.414;0.018;2024-01-25T09:18:02;6.45;;;3.58;;
42186;SDS011;27858;51.414;0.018;2024-01-25T09:20:29;10.80;;;4.55;;
42186;SDS011;27858;51.414;0.018;2024-01-25T09:22:56;8.93;;;4.78;;
42186;SDS011;27858;51.414;0.018;2024-01-25T09:25:23;10.00;;;4.82;;
42186;SDS011;27858;51.414;0.018;2024-01-25T09:27:50;4.82;;;3.30;;
42186;SDS011;27858;51.414;0.018;2024-01-25T09:30:19;6.57;;;4.45;;
42186;SDS011;27858;51.414;0.018;2024-01-25T09:32:46;7.38;;;4.25;;
42186;SDS011;27858;51.414;0.018;2024-01-25T09:35:15;8.00;;;4.57;;
42186;SDS011;27858;51.414;0.018;2024-01-25T09:37:42;5.55;;;3.25;;
42186;SDS011;27858;51.414;0.018;2024-01-25T09:40:09;5.18;;;3.20;;
42186;SDS011;27858;51.414;0.018;2024-01-25T09:42:37;8.20;;;2.65;;
42186;SDS011;27858;51.414;0.018;2024-01-25T09:45:06;4.20;;;2.45;;
42186;SDS011;27858;51.414;0.018;2024-01-25T09:47:33;3.38;;;2.38;;
42186;SDS011;27858;51.414;0.018;2024-01-25T09:50:01;2.65;;;1.42;;
42186;SDS011;27858;51.414;0.018;2024-01-25T09:52:28;3.72;;;2.08;;
42186;SDS011;27858;51.414;0.018;2024-01-25T09:54:57;5.72;;;2.45;;
42186;SDS011;27858;51.414;0.018;2024-01-25T09:57:24;3.53;;;1.98;;
42186;SDS011;27858;51.414;0.018;2024-01-25T09:59:54;4.03;;;1.88;;
42186;SDS011;27858;51.414;0.018;2024-01-25T10:02:24;5.97;;;2.20;;
42186;SDS011;27858;51.414;0.018;2024-01-25T10:04:51;3.47;;;2.03;;
42186;SDS011;27858;51.414;0.018;2024-01-25T10:10:08;4.40;;;2.60;;
42186;SDS011;27858;51.414;0.018;2024-01-25T10:12:36;6.00;;;2.58;;
42186;SDS011;27858;51.414;0.018;2024-01-25T10:15:08;9.70;;;2.67;;
42186;SDS011;27858;51.414;0.018;2024-01-25T10:17:35;10.10;;;3.85;;
42186;SDS011;27858;51.414;0.018;2024-01-25T10:20:22;5.70;;;2.72;;
42186;SDS011;27858;51.414;0.018;2024-01-25T10:22:54;13.38;;;3.80;;
42186;SDS011;27858;51.414;0.018;2024-01-25T10:25:25;5.88;;;1.95;;
42186;SDS011;27858;51.414;0.018;2024-01-25T10:27:52;6.10;;;1.77;;
42186;SDS011;27858;51.414;0.018;2024-01-25T10:30:19;4.10;;;1.58;;
42186;SDS011;27858;51.414;0.018;2024-01-25T10:32:47;5.43;;;2.25;;
42186;SDS011;27858;51.414;0.018;2024-01-25T10:35:17;5.07;;;1.27;;
42186;SDS011;27858;51.414;0.018;2024-01-25T10:37:49;3.97;;;2.08;;
42186;SDS011;27858;51.414;0.018;2024-01-25T10:40:21;9.60;;;2.38;;
42186;SDS011;27858;51.414;0.018;2024-01-25T10:42:48;6.13;;;1.50;;
42186;SDS011;27858;51.414;0.018;2024-01-25T10:45:18;12.70;;;2.45;;
42186;SDS011;27858;51.414;0.018;2024-01-25T10:47:47;3.67;;;2.00;;
42186;SDS011;27858;51.414;0.018;2024-01-25T10:50:15;5.70;;;1.77;;
42186;SDS011;27858;51.414;0.018;2024-01-25T10:52:43;4.20;;;1.95;;
42186;SDS011;27858;51.414;0.018;2024-01-25T10:55:11;7.03;;;2.90;;
42186;SDS011;27858;51.414;0.018;2024-01-25T10:57:41;10.38;;;3.35;;
42186;SDS011;27858;51.414;0.018;2024-01-25T11:00:13;3.47;;;1.88;;
42186;SDS011;27858;51.414;0.018;2024-01-25T11:02:41;4.03;;;2.15;;
42186;SDS011;27858;51.414;0.018;2024-01-25T11:05:14;5.68;;;1.73;;
42186;SDS011;27858;51.414;0.018;2024-01-25T11:07:48;4.00;;;2.17;;
42186;SDS011;27858;51.414;0.018;2024-01-25T11:10:20;13.88;;;2.42;;
42186;SDS011;27858;51.414;0.018;2024-01-25T11:12:51;6.83;;;3.00;;
42186;SDS011;27858;51.414;0.018;2024-01-25T11:15:23;4.95;;;1.38;;
42186;SDS011;27858;51.414;0.018;2024-01-25T11:17:56;5.75;;;2.08;;
42186;SDS011;27858;51.414;0.018;2024-01-25T11:20:24;6.97;;;2.08;;
42186;SDS011;27858;51.414;0.018;2024-01-25T11:23:00;3.97;;;2.13;;
42186;SDS011;27858;51.414;0.018;2024-01-25T11:25:30;4.60;;;2.35;;
42186;SDS011;27858;51.414;0.018;2024-01-25T11:27:58;3.30;;;2.15;;
42186;SDS011;27858;51.414;0.018;2024-01-25T11:30:27;7.18;;;3.22;;
42186;SDS011;27858;51.414;0.018;2024-01-25T11:32:55;7.75;;;2.35;;
42186;SDS011;27858;51.414;0.018;2024-01-25T11:35:22;10.40;;;2.58;;
42186;SDS011;27858;51.414;0.018;2024-01-25T11:37:52;7.05;;;2.33;;
42186;SDS011;27858;51.414;0.018;2024-01-25T11:40:19;7.53;;;2.97;;
42186;SDS011;27858;51.414;0.018;2024-01-25T11:42:48;7.72;;;2.17;;
42186;SDS011;27858;51.414;0.018;2024-01-25T11:45:16;5.97;;;2.20;;
42186;SDS011;27858;51.414;0.018;2024-01-25T11:47:44;7.32;;;2.83;;
42186;SDS011;27858;51.414;0.018;2024-01-25T11:50:11;15.52;;;2.45;;
42186;SDS011;27858;51.414;0.018;2024-01-25T11:52:39;15.27;;;2.92;;
42186;SDS011;27858;51.414;0.018;2024-01-25T11:55:07;7.07;;;2.13;;
42186;SDS011;27858;51.414;0.018;2024-01-25T11:57:39;8.32;;;2.88;;
42186;SDS011;27858;51.414;0.018;2024-01-25T12:00:10;13.93;;;3.30;;
42186;SDS011;27858;51.414;0.018;2024-01-25T12:02:40;4.97;;;2.67;;
42186;SDS011;27858;51.414;0.018;2024-01-25T12:05:08;6.90;;;3.25;;
42186;SDS011;27858;51.414;0.018;2024-01-25T12:07:38;5.68;;;1.98;;
42186;SDS011;27858;51.414;0.018;2024-01-25T12:10:06;8.07;;;2.75;;
42186;SDS011;27858;51.414;0.018;2024-01-25T12:12:35;8.52;;;2.15;;
42186;SDS011;27858;51.414;0.018;2024-01-25T12:15:06;5.82;;;2.22;;
42186;SDS011;27858;51.414;0.018;2024-01-25T12:17:36;7.03;;;2.58;;
42186;SDS011;27858;51.414;0.018;2024-01-25T12:20:05;6.55;;;2.10;;
42186;SDS011;27858;51.414;0.018;2024-01-25T12:22:37;11.05;;;2.80;;
42186;SDS011;27858;51.414;0.018;2024-01-25T12:25:07;8.27;;;2.95;;
42186;SDS011;27858;51.414;0.018;2024-01-25T12:27:40;12.85;;;3.30;;
42186;SDS011;27858;51.414;0.018;2024-01-25T12:30:13;9.80;;;2.55;;
42186;SDS011;27858;51.414;0.018;2024-01-25T12:32:39;9.73;;;2.60;;
42186;SDS011;27858;51.414;0.018;2024-01-25T12:35:07;10.88;;;2.63;;
42186;SDS011;27858;51.414;0.018;2024-01-25T12:37:35;5.55;;;2.00;;
42186;SDS011;27858;51.414;0.018;2024-01-25T12:40:02;8.95;;;3.00;;
42186;SDS011;27858;51.414;0.018;2024-01-25T12:42:30;3.35;;;1.42;;
42186;SDS011;27858;51.414;0.018;2024-01-25T12:44:57;5.45;;;2.05;;
42186;SDS011;27858;51.414;0.018;2024-01-25T12:47:24;7.80;;;2.17;;
42186;SDS011;27858;51.414;0.018;2024-01-25T12:49:52;12.30;;;2.95;;
42186;SDS011;27858;51.414;0.018;2024-01-25T12:52:19;4.97;;;1.88;;
42186;SDS011;27858;51.414;0.018;2024-01-25T12:54:46;7.18;;;2.50;;
42186;SDS011;27858;51.414;0.018;2024-01-25T12:57:13;6.03;;;2.38;;
42186;SDS011;27858;51.414;0.018;2024-01-25T12:59:40;8.15;;;2.10;;
42186;SDS011;27858;51.414;0.018;2024-01-25T13:02:07;5.53;;;2.35;;
42186;SDS011;27858;51.414;0.018;2024-01-25T13:04:34;8.63;;;2.67;;
42186;SDS011;27858;51.414;0.018;2024-01-25T13:07:01;4.18;;;2.20;;
42186;SDS011;27858;51.414;0.018;2024-01-25T13:09:28;12.05;;;2.03;;
42186;SDS011;27858;51.414;0.018;2024-01-25T13:11:55;7.85;;;1.90;;
42186;SDS011;27858;51.414;0.018;2024-01-25T13:14:23;5.68;;;1.52;;
42186;SDS011;27858;51.414;0.018;2024-01-25T13:16:50;5.13;;;1.75;;
42186;SDS011;27858;51.414;0.018;2024-01-25T13:19:17;8.30;;;1.95;;
42186;SDS011;27858;51.414;0.018;2024-01-25T13:21:44;5.30;;;2.03;;
42186;SDS011;27858;51.414;0.018;2024-01-25T13:24:11;8.57;;;2.35;;
42186;SDS011;27858;51.414;0.018;2024-01-25T13:26:38;11.13;;;3.00;;
42186;SDS011;27858;51.414;0.018;2024-01-25T13:29:05;7.38;;;2.03;;
42186;SDS011;27858;51.414;0.018;2024-01-25T13:31:32;9.45;;;2.25;;
42186;SDS011;27858;51.414;0.018;2024-01-25T13:33:59;6.97;;;2.15;;
42186;SDS011;27858;51.414;0.018;2024-01-25T13:36:26;9.45;;;2.35;;
42186;SDS011;27858;51.414;0.018;2024-01-25T13:38:53;3.13;;;2.03;;
42186;SDS011;27858;51.414;0.018;2024-01-25T13:41:20;7.28;;;2.80;;
42186;SDS011;27858;51.414;0.018;2024-01-25T13:43:46;9.38;;;2.38;;
42186;SDS011;27858;51.414;0.018;2024-01-25T13:46:13;18.95;;;2.55;;
42186;SDS011;27858;51.414;0.018;2024-01-25T13:48:40;11.50;;;1.85;;
42186;SDS011;27858;51.414;0.018;2024-01-25T13:51:07;2.20;;;1.38;;
42186;SDS011;27858;51.414;0.018;2024-01-25T13:53:34;11.07;;;1.55;;
42186;SDS011;27858;51.414;0.018;2024-01-25T13:56:02;5.32;;;1.83;;
42186;SDS011;27858;51.414;0.018;2024-01-25T13:58:29;6.20;;;2.45;;
42186;SDS011;27858;51.414;0.018;2024-01-25T14:00:56;9.40;;;2.28;;
42186;SDS011;27858;51.414;0.018;2024-01-25T14:03:22;4.28;;;1.30;;
42186;SDS011;27858;51.414;0.018;2024-01-25T14:05:49;8.45;;;2.35;;
42186;SDS011;27858;51.414;0.018;2024-01-25T14:08:16;3.95;;;1.27;;
42186;SDS011;27858;51.414;0.018;2024-01-25T14:10:43;2.65;;;1.13;;
42186;SDS011;27858;51.414;0.018;2024-01-25T14:13:10;5.85;;;1.95;;
42186;SDS011;27858;51.414;0.018;2024-01-25T14:15:37;6.10;;;1.85;;
42186;SDS011;27858;51.414;0.018;2024-01-25T14:18:04;4.25;;;1.35;;
42186;SDS011;27858;51.414;0.018;2024-01-25T14:20:32;2.75;;;1.10;;
42186;SDS011;27858;51.414;0.018;2024-01-25T14:23:00;3.55;;;1.25;;
42186;SDS011;27858;51.414;0.018;2024-01-25T14:25:28;4.25;;;1.90;;
42186;SDS011;27858;51.414;0.018;2024-01-25T14:27:54;3.10;;;1.42;;
42186;SDS011;27858;51.414;0.018;2024-01-25T14:30:24;8.02;;;1.33;;
42186;SDS011;27858;51.414;0.018;2024-01-25T14:32:51;2.33;;;1.15;;
42186;SDS011;27858;51.414;0.018;2024-01-25T14:35:18;4.97;;;1.77;;
42186;SDS011;27858;51.414;0.018;2024-01-25T14:37:45;3.90;;;1.35;;
42186;SDS011;27858;51.414;0.018;2024-01-25T14:40:12;3.65;;;1.40;;
42186;SDS011;27858;51.414;0.018;2024-01-25T14:42:58;3.83;;;1.00;;
42186;SDS011;27858;51.414;0.018;2024-01-25T14:45:26;3.70;;;1.83;;